createdAt,value
2018-05-27T00:00:21.585Z,66.10
2018-05-27T00:02:49.147Z,66.60
2018-05-27T00:05:17.502Z,66.30
2018-05-27T00:07:45.062Z,66.60
2018-05-27T00:10:12.558Z,66.90
2018-05-27T00:12:40.115Z,67.00
2018-05-27T00:15:07.646Z,66.80
2018-05-27T00:17:37.065Z,66.50
2018-05-27T00:20:04.583Z,66.50
2018-05-27T00:22:32.145Z,66.40
2018-05-27T00:24:59.652Z,67.60
2018-05-27T00:27:27.222Z,66.40
2018-05-27T00:29:54.747Z,66.80
2018-05-27T00:32:22.307Z,67.70
2018-05-27T00:34:49.821Z,67.60
2018-05-27T00:37:17.356Z,67.60
2018-05-27T00:39:45.682Z,68.20
2018-05-27T00:42:13.190Z,67.50
2018-05-27T00:44:41.398Z,67.50
2018-05-27T00:47:08.906Z,67.50
2018-05-27T00:49:36.464Z,67.50
2018-05-27T00:52:03.991Z,67.50
2018-05-27T00:54:31.537Z,67.50
2018-05-27T00:56:59.040Z,67.40
2018-05-27T00:59:26.603Z,67.40
2018-05-27T01:01:54.173Z,67.40
2018-05-27T01:04:23.194Z,67.50
2018-05-27T01:06:50.694Z,67.30
2018-05-27T01:09:18.250Z,67.40
2018-05-27T01:11:45.776Z,67.70
2018-05-27T01:14:13.353Z,67.70
2018-05-27T01:16:40.939Z,67.70
2018-05-27T01:19:08.482Z,67.40
2018-05-27T01:21:36.015Z,67.20
2018-05-27T01:24:03.562Z,67.20
2018-05-27T01:26:32.727Z,68.00
2018-05-27T01:29:00.269Z,67.90
2018-05-27T01:31:27.848Z,67.10
2018-05-27T01:33:55.406Z,68.10
2018-05-27T01:36:22.971Z,67.70
2018-05-27T01:38:50.502Z,68.20
2018-05-27T01:41:18.039Z,68.10
2018-05-27T01:43:45.553Z,67.10
2018-05-27T01:46:13.105Z,67.80
2018-05-27T01:48:40.627Z,68.40
2018-05-27T01:51:08.195Z,68.50
2018-05-27T01:53:36.484Z,68.50
2018-05-27T01:56:04.111Z,68.40
2018-05-27T01:58:32.343Z,68.90
2018-05-27T02:01:00.629Z,68.40
2018-05-27T02:03:28.189Z,68.30
2018-05-27T02:05:56.461Z,68.60
2018-05-27T02:08:24.770Z,68.70
2018-05-27T02:10:52.339Z,68.70
2018-05-27T02:13:19.907Z,69.00
2018-05-27T02:15:47.412Z,68.00
2018-05-27T02:18:15.000Z,69.00
2018-05-27T02:20:42.524Z,68.80
2018-05-27T02:23:10.081Z,69.40
2018-05-27T02:25:37.581Z,69.20
2018-05-27T02:28:05.145Z,69.20
2018-05-27T02:30:32.646Z,68.90
2018-05-27T02:33:00.152Z,69.20
2018-05-27T02:35:27.716Z,69.20
2018-05-27T02:37:55.236Z,69.30
2018-05-27T02:40:22.787Z,69.00
2018-05-27T02:42:50.295Z,69.70
2018-05-27T02:45:17.822Z,69.40
2018-05-27T02:47:46.086Z,69.10
2018-05-27T02:50:13.629Z,69.00
2018-05-27T02:52:41.120Z,68.80
2018-05-27T02:55:08.660Z,69.20
2018-05-27T02:57:36.160Z,69.30
2018-05-27T03:00:03.729Z,69.30
2018-05-27T03:02:33.150Z,69.50
2018-05-27T03:05:00.701Z,70.30
2018-05-27T03:07:28.203Z,70.20
2018-05-27T03:09:55.742Z,69.80
2018-05-27T03:12:23.240Z,70.50
2018-05-27T03:14:50.790Z,69.90
2018-05-27T03:17:19.060Z,69.70
2018-05-27T03:19:46.567Z,69.70
2018-05-27T03:22:14.103Z,70.00
2018-05-27T03:24:41.605Z,71.00
2018-05-27T03:27:09.145Z,69.70
2018-05-27T03:29:37.373Z,69.90
2018-05-27T03:32:04.910Z,69.70
2018-05-27T03:34:32.399Z,69.40
2018-05-27T03:37:00.699Z,68.70
2018-05-27T03:39:28.378Z,68.70
2018-05-27T03:44:29.783Z,69.20
2018-05-27T03:46:57.333Z,69.30
2018-05-27T03:49:24.841Z,68.80
2018-05-27T03:51:52.619Z,69.10
2018-05-27T03:54:20.227Z,68.90
2018-05-27T03:56:47.731Z,68.70
2018-05-27T03:59:15.264Z,68.80
2018-05-27T04:01:43.535Z,68.20
2018-05-27T04:04:23.671Z,67.90
2018-05-27T04:07:03.040Z,67.80
2018-05-27T04:09:31.403Z,67.90
2018-05-27T04:11:58.907Z,67.80
2018-05-27T04:14:26.443Z,68.40
2018-05-27T04:16:54.031Z,67.80
2018-05-27T04:19:21.574Z,68.40
2018-05-27T04:21:49.078Z,68.40
2018-05-27T04:24:16.631Z,68.00
2018-05-27T04:26:44.122Z,68.10
2018-05-27T04:29:12.422Z,68.40
2018-05-27T04:31:39.926Z,68.40
2018-05-27T04:34:07.486Z,67.80
2018-05-27T04:36:35.057Z,67.20
2018-05-27T04:39:02.547Z,66.70
2018-05-27T04:41:30.094Z,67.00
2018-05-27T04:43:57.611Z,66.80
2018-05-27T04:46:25.122Z,66.90
2018-05-27T04:48:52.683Z,66.90
2018-05-27T04:51:20.189Z,66.90
2018-05-27T04:53:48.452Z,67.00
2018-05-27T04:56:16.335Z,66.80
2018-05-27T04:58:43.917Z,66.90
2018-05-27T05:01:11.427Z,66.90
2018-05-27T05:03:39.099Z,67.00
2018-05-27T05:06:06.604Z,66.70
2018-05-27T05:08:34.920Z,66.40
2018-05-27T05:11:02.437Z,66.40
2018-05-27T05:13:30.757Z,66.70
2018-05-27T05:15:59.082Z,66.80
2018-05-27T05:18:27.532Z,67.00
2018-05-27T05:20:55.065Z,66.70
2018-05-27T05:23:22.724Z,66.90
2018-05-27T05:25:50.247Z,66.90
2018-05-27T05:28:17.787Z,67.00
2018-05-27T05:30:45.299Z,66.90
2018-05-27T05:33:12.842Z,66.80
2018-05-27T05:35:41.114Z,66.90
2018-05-27T05:38:09.421Z,67.20
2018-05-27T05:40:36.923Z,67.10
2018-05-27T05:43:04.479Z,66.90
2018-05-27T05:45:31.982Z,67.30
2018-05-27T05:47:59.553Z,67.20
2018-05-27T05:50:27.069Z,67.50
2018-05-27T05:52:54.647Z,67.50
2018-05-27T05:55:22.151Z,68.30
2018-05-27T05:57:49.730Z,68.40
2018-05-27T06:00:17.281Z,68.40
2018-05-27T06:02:44.783Z,68.40
2018-05-27T06:05:13.108Z,67.90
2018-05-27T06:07:40.663Z,67.90
2018-05-27T06:10:08.163Z,68.40
2018-05-27T06:12:35.679Z,67.80
2018-05-27T06:15:03.418Z,67.70
2018-05-27T06:17:30.932Z,67.90
2018-05-27T06:19:58.468Z,67.60
2018-05-27T06:22:25.978Z,67.20
2018-05-27T06:24:53.521Z,67.60
2018-05-27T06:27:21.027Z,67.90
2018-05-27T06:29:49.394Z,67.70
2018-05-27T06:32:16.899Z,67.40
2018-05-27T06:34:44.475Z,67.40
2018-05-27T06:37:11.982Z,67.30
2018-05-27T06:39:39.522Z,67.20
2018-05-27T06:42:07.039Z,67.10
2018-05-27T06:44:34.574Z,66.90
2018-05-27T06:47:02.094Z,66.60
2018-05-27T06:49:30.427Z,66.50
2018-05-27T06:51:57.947Z,66.40
2018-05-27T06:54:25.491Z,67.00
2018-05-27T06:56:53.757Z,67.10
2018-05-27T06:59:22.080Z,67.30
2018-05-27T07:01:49.598Z,67.90
2018-05-27T07:04:17.151Z,67.30
2018-05-27T07:06:45.422Z,67.30
2018-05-27T07:09:13.694Z,67.40
2018-05-27T07:11:42.023Z,67.60
2018-05-27T07:14:09.514Z,67.50
2018-05-27T07:16:37.061Z,67.20
2018-05-27T07:19:04.561Z,67.10
2018-05-27T07:21:32.876Z,67.20
2018-05-27T07:24:00.389Z,67.00
2018-05-27T07:26:27.949Z,67.00
2018-05-27T07:28:56.226Z,67.30
2018-05-27T07:31:24.568Z,67.50
2018-05-27T07:33:52.091Z,67.40
2018-05-27T07:36:19.644Z,67.80
2018-05-27T07:38:47.150Z,68.40
2018-05-27T07:41:14.710Z,67.80
2018-05-27T07:43:42.242Z,68.40
2018-05-27T07:46:09.794Z,68.90
2018-05-27T07:48:37.418Z,68.90
2018-05-27T07:51:04.972Z,68.90
2018-05-27T07:53:34.091Z,69.60
2018-05-27T07:56:01.605Z,69.00
2018-05-27T07:58:29.168Z,68.50
2018-05-27T08:00:56.658Z,68.00
2018-05-27T08:03:24.962Z,67.90
2018-05-27T08:05:52.485Z,67.90
2018-05-27T08:08:20.795Z,69.00
2018-05-27T08:10:48.315Z,69.00
2018-05-27T08:13:16.639Z,68.90
2018-05-27T08:15:44.146Z,68.90
2018-05-27T08:18:11.701Z,69.80
2018-05-27T08:20:39.256Z,69.80
2018-05-27T08:23:07.669Z,70.20
2018-05-27T08:25:35.977Z,69.70
2018-05-27T08:28:03.565Z,69.60
2018-05-27T08:30:31.097Z,70.00
2018-05-27T08:32:58.644Z,70.70
2018-05-27T08:35:26.144Z,71.40
2018-05-27T08:37:53.753Z,72.00
2018-05-27T08:40:21.270Z,71.20
2018-05-27T08:42:48.770Z,71.60
2018-05-27T08:45:16.423Z,71.80
2018-05-27T08:47:44.738Z,72.00
2018-05-27T08:50:12.234Z,71.90
2018-05-27T08:52:39.804Z,72.20
2018-05-27T08:55:08.083Z,72.50
2018-05-27T08:57:36.496Z,73.20
2018-05-27T09:00:04.139Z,73.10
2018-05-27T09:02:31.652Z,73.20
2018-05-27T09:04:59.200Z,72.90
2018-05-27T09:07:26.734Z,74.10
2018-05-27T09:09:54.299Z,77.70
2018-05-27T09:12:21.811Z,81.80
2018-05-27T09:14:50.138Z,77.60
2018-05-27T09:17:17.651Z,77.60
2018-05-27T09:19:47.481Z,77.50
2018-05-27T09:22:15.003Z,77.40
2018-05-27T09:24:42.567Z,77.40
2018-05-27T09:27:10.075Z,77.40
2018-05-27T09:29:37.616Z,79.50
2018-05-27T09:32:06.751Z,80.00
2018-05-27T09:34:34.303Z,80.00
2018-05-27T09:37:01.812Z,79.90
2018-05-27T09:39:30.143Z,80.20
2018-05-27T09:41:57.656Z,80.20
2018-05-27T09:44:25.170Z,79.90
2018-05-27T09:46:52.740Z,79.70
2018-05-27T09:49:20.247Z,80.40
2018-05-27T09:51:47.803Z,79.30
2018-05-27T09:54:16.062Z,79.80
2018-05-27T09:56:44.381Z,79.90
2018-05-27T09:59:11.914Z,79.90
2018-05-27T10:01:39.474Z,80.40
2018-05-27T10:04:07.783Z,78.90
2018-05-27T10:06:35.344Z,78.70
2018-05-27T10:09:02.876Z,78.80
2018-05-27T10:11:30.514Z,79.60
2018-05-27T10:13:58.799Z,77.80
2018-05-27T10:16:27.132Z,78.00
2018-05-27T10:18:54.724Z,77.90
2018-05-27T10:21:22.251Z,77.70
2018-05-27T10:23:49.806Z,77.60
2018-05-27T10:26:17.318Z,76.10
2018-05-27T10:28:44.866Z,75.50
2018-05-27T10:31:12.383Z,74.20
2018-05-27T10:33:40.702Z,73.10
2018-05-27T10:36:08.967Z,71.80
2018-05-27T10:38:36.510Z,71.70
2018-05-27T10:41:04.199Z,71.90
2018-05-27T10:43:32.532Z,70.10
2018-05-27T10:46:00.047Z,70.10
2018-05-27T10:48:27.604Z,71.30
2018-05-27T10:50:55.112Z,70.00
2018-05-27T10:53:22.669Z,70.00
2018-05-27T10:55:50.179Z,67.30
2018-05-27T10:58:18.449Z,68.80
2018-05-27T11:00:46.787Z,69.10
2018-05-27T11:03:14.302Z,69.00
2018-05-27T11:05:42.651Z,69.20
2018-05-27T11:08:10.170Z,69.20
2018-05-27T11:10:37.765Z,69.60
2018-05-27T11:13:05.262Z,68.60
2018-05-27T11:15:32.823Z,68.20
2018-05-27T11:18:00.373Z,68.20
2018-05-27T11:20:27.939Z,69.10
2018-05-27T11:22:56.359Z,68.10
2018-05-27T11:25:23.905Z,68.60
2018-05-27T11:27:51.435Z,69.20
2018-05-27T11:30:19.043Z,67.90
2018-05-27T11:32:46.574Z,68.70
2018-05-27T11:35:14.120Z,69.10
2018-05-27T11:37:41.622Z,69.70
2018-05-27T11:40:09.130Z,69.90
2018-05-27T11:42:36.684Z,69.20
2018-05-27T11:45:04.228Z,69.20
2018-05-27T11:47:31.787Z,69.00
2018-05-27T11:50:00.073Z,68.90
2018-05-27T11:52:28.417Z,69.10
2018-05-27T11:54:55.928Z,69.00
2018-05-27T11:57:23.478Z,69.30
2018-05-27T11:59:51.754Z,68.70
2018-05-27T12:02:20.118Z,67.30
2018-05-27T12:04:47.925Z,67.30
2018-05-27T12:07:15.540Z,65.90
2018-05-27T12:09:44.033Z,64.90
2018-05-27T12:12:11.380Z,64.90
2018-05-27T12:14:39.645Z,63.80
2018-05-27T12:17:07.189Z,63.80
2018-05-27T12:19:34.702Z,63.40
2018-05-27T12:22:02.217Z,62.80
2018-05-27T12:24:29.778Z,62.60
2018-05-27T12:26:57.287Z,62.60
2018-05-27T12:29:24.886Z,62.60
2018-05-27T12:31:52.428Z,62.70
2018-05-27T12:34:19.975Z,63.00
2018-05-27T12:36:47.481Z,62.70
2018-05-27T12:39:15.809Z,62.80
2018-05-27T12:41:43.315Z,62.70
2018-05-27T12:44:10.879Z,62.90
2018-05-27T12:46:39.195Z,62.90
2018-05-27T12:49:06.738Z,62.80
2018-05-27T12:51:34.259Z,61.00
2018-05-27T12:54:01.830Z,57.70
2018-05-27T12:56:29.331Z,56.90
2018-05-27T12:58:56.859Z,54.10
2018-05-27T13:01:25.169Z,52.00
2018-05-27T13:03:52.720Z,52.00
2018-05-27T13:06:20.228Z,50.10
2018-05-27T13:08:47.767Z,48.90
2018-05-27T13:11:15.714Z,47.40
2018-05-27T13:13:43.247Z,45.70
2018-05-27T13:16:11.528Z,43.30
2018-05-27T13:18:39.874Z,42.10
2018-05-27T13:21:07.381Z,42.30
2018-05-27T13:23:34.883Z,41.80
2018-05-27T13:26:02.429Z,41.10
2018-05-27T13:28:29.971Z,40.50
2018-05-27T13:30:57.480Z,39.40
2018-05-27T13:33:25.807Z,37.90
2018-05-27T13:35:53.362Z,36.90
2018-05-27T13:38:20.892Z,36.70
2018-05-27T13:40:48.453Z,37.60
2018-05-27T13:43:15.968Z,36.00
2018-05-27T13:45:43.534Z,36.40
2018-05-27T13:48:11.041Z,36.10
2018-05-27T13:50:38.595Z,35.70
2018-05-27T13:53:06.096Z,36.90
2018-05-27T13:55:33.634Z,37.20
2018-05-27T13:58:01.150Z,38.20
2018-05-27T14:00:29.498Z,38.30
2018-05-27T14:02:57.029Z,38.20
2018-05-27T14:05:24.575Z,38.30
2018-05-27T14:07:52.132Z,39.80
2018-05-27T14:10:19.703Z,42.10
2018-05-27T14:12:47.260Z,41.80
2018-05-27T14:15:14.768Z,41.30
2018-05-27T14:17:42.322Z,41.10
2018-05-27T14:20:09.840Z,42.60
2018-05-27T14:22:37.370Z,43.40
2018-05-27T14:25:05.657Z,44.90
2018-05-27T14:27:33.218Z,44.90
2018-05-27T14:30:00.740Z,45.30
2018-05-27T14:32:28.299Z,46.00
2018-05-27T14:34:55.799Z,46.30
2018-05-27T14:37:23.368Z,46.70
2018-05-27T14:39:50.869Z,47.30
2018-05-27T14:42:18.356Z,47.50
2018-05-27T14:44:45.941Z,47.90
2018-05-27T14:47:14.175Z,48.60
2018-05-27T14:49:42.487Z,48.80
2018-05-27T14:52:10.035Z,48.80
2018-05-27T14:54:37.549Z,49.10
2018-05-27T14:57:05.710Z,49.30
2018-05-27T14:59:33.220Z,49.90
2018-05-27T15:02:01.581Z,51.90
2018-05-27T15:04:29.848Z,51.50
2018-05-27T15:06:57.398Z,51.10
2018-05-27T15:09:24.963Z,52.00
2018-05-27T15:11:52.474Z,51.90
2018-05-27T15:14:20.112Z,51.80
2018-05-27T15:16:50.245Z,51.80
2018-05-27T15:19:17.841Z,51.70
2018-05-27T15:21:45.339Z,51.70
2018-05-27T15:24:13.606Z,52.50
2018-05-27T15:26:41.147Z,51.60
2018-05-27T15:29:08.661Z,51.60
2018-05-27T15:31:36.896Z,51.70
2018-05-27T15:34:04.386Z,52.40
2018-05-27T15:36:32.080Z,52.60
2018-05-27T15:38:59.654Z,52.80
2018-05-27T15:41:27.204Z,52.70
2018-05-27T15:43:55.762Z,52.90
2018-05-27T15:46:23.924Z,52.90
2018-05-27T15:48:51.419Z,52.60
2018-05-27T15:51:18.993Z,52.90
2018-05-27T15:53:46.534Z,52.90
2018-05-27T15:56:14.066Z,53.20
2018-05-27T15:58:41.582Z,53.00
2018-05-27T16:01:09.127Z,52.80
2018-05-27T16:03:36.643Z,53.50
2018-05-27T16:06:04.244Z,53.80
2018-05-27T16:08:31.740Z,53.90
2018-05-27T16:11:00.026Z,54.30
2018-05-27T16:13:27.603Z,55.20
2018-05-27T16:15:55.119Z,54.30
2018-05-27T16:18:23.239Z,54.40
2018-05-27T16:20:50.797Z,54.30
2018-05-27T16:23:18.518Z,54.50
2018-05-27T16:25:46.984Z,54.20
2018-05-27T16:28:14.526Z,54.70
2018-05-27T16:30:42.035Z,54.80
2018-05-27T16:33:09.590Z,54.60
2018-05-27T16:35:37.921Z,54.30
2018-05-27T16:38:05.514Z,54.20
2018-05-27T16:40:33.031Z,54.10
2018-05-27T16:43:00.563Z,54.20
2018-05-27T16:45:28.055Z,54.00
2018-05-27T16:47:55.957Z,53.80
2018-05-27T16:50:24.289Z,52.60
2018-05-27T16:52:51.824Z,51.80
2018-05-27T16:55:19.507Z,51.90
2018-05-27T16:57:48.307Z,52.00
2018-05-27T17:00:16.312Z,52.00
2018-05-27T17:02:43.767Z,52.00
2018-05-27T17:05:11.307Z,52.00
2018-05-27T17:07:38.859Z,51.90
2018-05-27T17:10:06.434Z,51.90
2018-05-27T17:12:33.935Z,51.90
2018-05-27T17:15:02.252Z,51.80
2018-05-27T17:17:29.752Z,51.80
2018-05-27T17:19:58.059Z,51.90
2018-05-27T17:22:25.567Z,51.70
2018-05-27T17:24:53.145Z,51.70
2018-05-27T17:27:21.428Z,51.80
2018-05-27T17:29:49.740Z,51.90
2018-05-27T17:32:17.229Z,51.80
2018-05-27T17:34:44.820Z,51.90
2018-05-27T17:37:13.098Z,52.70
2018-05-27T17:39:41.409Z,51.80
2018-05-27T17:42:08.953Z,51.70
2018-05-27T17:44:37.210Z,51.60
2018-05-27T17:47:04.852Z,51.60
2018-05-27T17:49:32.360Z,52.50
2018-05-27T17:51:59.927Z,52.80
2018-05-27T17:54:27.453Z,53.30
2018-05-27T17:56:55.793Z,54.10
2018-05-27T17:59:23.582Z,53.90
2018-05-27T18:01:51.131Z,54.30
2018-05-27T18:04:18.639Z,54.90
2018-05-27T18:06:46.215Z,54.70
2018-05-27T18:09:13.758Z,55.20
2018-05-27T18:11:41.316Z,55.30
2018-05-27T18:14:08.828Z,55.60
2018-05-27T18:16:36.376Z,55.80
2018-05-27T18:19:03.885Z,56.40
2018-05-27T18:21:31.434Z,56.70
2018-05-27T18:23:59.721Z,57.40
2018-05-27T18:26:28.022Z,57.30
2018-05-27T18:28:55.612Z,57.30
2018-05-27T18:31:23.178Z,57.20
2018-05-27T18:33:50.727Z,57.20
2018-05-27T18:36:18.231Z,57.20
2018-05-27T18:38:46.571Z,58.10
2018-05-27T18:41:14.053Z,58.10
2018-05-27T18:43:41.611Z,58.40
2018-05-27T18:46:09.893Z,59.40
2018-05-27T18:48:38.198Z,59.80
2018-05-27T18:51:05.703Z,59.80
2018-05-27T18:53:34.144Z,60.00
2018-05-27T18:56:01.653Z,60.30
2018-05-27T18:58:29.231Z,60.50
2018-05-27T19:00:56.826Z,60.80
2018-05-27T19:03:24.379Z,61.00
2018-05-27T19:05:51.908Z,61.00
2018-05-27T19:08:19.501Z,61.30
2018-05-27T19:10:47.011Z,61.90
2018-05-27T19:13:14.570Z,62.30
2018-05-27T19:15:42.116Z,62.20
2018-05-27T19:18:09.685Z,62.30
2018-05-27T19:20:37.202Z,62.20
2018-05-27T19:23:05.927Z,62.20
2018-05-27T19:25:33.569Z,62.10
2018-05-27T19:28:01.063Z,62.20
2018-05-27T19:30:28.623Z,62.60
2018-05-27T19:32:56.901Z,63.00
2018-05-27T19:35:26.091Z,63.30
2018-05-27T19:37:55.230Z,63.50
2018-05-27T19:40:22.784Z,63.40
2018-05-27T19:42:50.315Z,63.50
2018-05-27T19:45:17.868Z,63.70
2018-05-27T19:47:45.396Z,63.90
2018-05-27T19:50:13.983Z,64.10
2018-05-27T19:52:42.424Z,64.20
2018-05-27T19:55:10.008Z,64.30
2018-05-27T19:57:37.519Z,64.30
2018-05-27T20:00:05.070Z,64.20
2018-05-27T20:02:33.416Z,65.60
2018-05-27T20:05:01.099Z,65.50
2018-05-27T20:07:28.624Z,66.10
2018-05-27T20:09:56.282Z,65.70
2018-05-27T20:12:24.520Z,66.80
2018-05-27T20:14:52.091Z,66.20
2018-05-27T20:17:19.603Z,66.20
2018-05-27T20:19:47.135Z,66.50
2018-05-27T20:22:14.701Z,66.60
2018-05-27T20:24:42.204Z,66.90
2018-05-27T20:27:09.765Z,67.10
2018-05-27T20:29:38.088Z,67.50
2018-05-27T20:32:05.640Z,67.40
2018-05-27T20:34:33.176Z,67.40
2018-05-27T20:37:01.571Z,67.70
2018-05-27T20:39:29.097Z,67.60
2018-05-27T20:41:57.414Z,67.80
2018-05-27T20:44:24.928Z,67.80
2018-05-27T20:46:52.535Z,68.00
2018-05-27T20:49:20.049Z,68.00
2018-05-27T20:51:48.385Z,68.20
2018-05-27T20:54:15.909Z,68.10
2018-05-27T20:56:43.551Z,68.30
2018-05-27T20:59:11.035Z,68.40
2018-05-27T21:01:38.664Z,68.80
2018-05-27T21:04:06.180Z,68.70
2018-05-27T21:06:33.747Z,68.80
2018-05-27T21:09:01.363Z,68.70
2018-05-27T21:11:29.642Z,69.30
2018-05-27T21:13:57.201Z,69.30
2018-05-27T21:16:25.463Z,69.10
2018-05-27T21:18:53.793Z,69.40
2018-05-27T21:21:21.318Z,69.20
2018-05-27T21:23:48.882Z,69.50
2018-05-27T21:26:16.387Z,69.70
2018-05-27T21:28:43.955Z,70.20
2018-05-27T21:31:11.473Z,70.10
2018-05-27T21:33:39.094Z,70.10
2018-05-27T21:36:07.392Z,70.00
2018-05-27T21:38:34.982Z,70.00
2018-05-27T21:41:02.509Z,70.00
2018-05-27T21:43:30.075Z,70.00
2018-05-27T21:45:57.609Z,69.90
2018-05-27T21:48:25.947Z,70.00
2018-05-27T21:50:53.457Z,69.90
2018-05-27T21:53:21.829Z,70.10
2018-05-27T21:55:50.560Z,70.50
2018-05-27T21:58:18.099Z,70.50
2018-05-27T22:00:45.658Z,70.60
2018-05-27T22:03:13.196Z,70.40
2018-05-27T22:05:40.782Z,70.90
2018-05-27T22:08:08.288Z,71.00
2018-05-27T22:10:35.847Z,71.40
2018-05-27T22:13:03.365Z,71.40
2018-05-27T22:15:30.920Z,71.50
2018-05-27T22:17:58.459Z,71.70
2018-05-27T22:20:26.746Z,71.90
2018-05-27T22:22:54.534Z,72.30
2018-05-27T22:25:22.047Z,71.70
2018-05-27T22:27:50.436Z,72.00
2018-05-27T22:30:18.234Z,72.00
2018-05-27T22:32:47.750Z,71.90
2018-05-27T22:35:16.108Z,72.00
2018-05-27T22:37:43.635Z,71.90
2018-05-27T22:40:11.962Z,72.90
2018-05-27T22:42:39.473Z,72.30
2018-05-27T22:45:07.010Z,72.30
2018-05-27T22:47:34.540Z,72.40
2018-05-27T22:50:02.075Z,72.50
2018-05-27T22:52:29.594Z,72.30
2018-05-27T22:54:57.138Z,72.40
2018-05-27T22:57:25.463Z,72.80
2018-05-27T22:59:53.058Z,73.00
2018-05-27T23:02:20.655Z,72.90
2018-05-27T23:04:49.651Z,73.70
2018-05-27T23:07:17.166Z,73.30
2018-05-27T23:09:45.510Z,73.50
2018-05-27T23:12:13.047Z,73.90
2018-05-27T23:14:41.347Z,73.50
2018-05-27T23:17:08.865Z,73.60
2018-05-27T23:19:36.419Z,73.50
2018-05-27T23:22:04.890Z,73.60
2018-05-27T23:24:32.431Z,73.50
2018-05-27T23:26:59.934Z,73.50
2018-05-27T23:29:27.437Z,73.40
2018-05-27T23:31:54.975Z,73.40
2018-05-27T23:34:22.474Z,73.40
2018-05-27T23:36:50.005Z,73.90
2018-05-27T23:39:17.524Z,73.30
2018-05-27T23:41:45.080Z,74.00
2018-05-27T23:44:12.574Z,74.00
2018-05-27T23:46:40.916Z,74.40
2018-05-27T23:49:08.429Z,74.40
2018-05-27T23:51:35.998Z,74.60
2018-05-27T23:54:03.509Z,74.60
2018-05-27T23:56:31.065Z,74.90
2018-05-27T23:58:59.336Z,75.50
